35.2°F
Current conditions from King Hill
Updated every 5 minutes
 
  Friday April 18, 2014

Station Historical Data
Daily Summary for February 17, 2012 Units:  Both    English   Metric
« Previous Day
Next Day »
Daily Weekly Monthly Yearly Custom
  High: Low: Average:
Temperature: 38.9 °F /  3.8 °C 31.7 °F /  -0.2 °C 35.3 °F /  1.8 °C
Dew Point: 33.2 °F /  0.7 °C 21.4 °F /  -5.9 °C 27.5 °F /  -2.5 °C
Humidity: 92% 55% 74%
Wind Speed: 14.0mph /  22.5km/h - 5.8mph /  9.3km/h
Wind Gust: 23.0mph /  37km/h - -
Wind- - WSW
Pressure: 29.89 in /  1012.1 hPa 29.81 in /  1009.4 hPa -
Precipitation: 0.00 in /  0 mm    
Historical Graphs
 
 
Tabular Data for February 17, 2012
Time Temperature Dew Point Pressure Wind Wind Speed Wind Gust Humidity Daily Rainfall
00:00 34.7 °F /  1.5 °C 32.6 °F /  0.3 °C 29.86in /  1011.1hPa SSW 7.0mph /  11.3km/h 19.0mph /  30.6km/h 92% 0.00in /  0mm
00:05 34.7 °F /  1.5 °C 32.6 °F /  0.3 °C 29.86in /  1011.1hPa SSW 6.0mph /  9.7km/h 19.0mph /  30.6km/h 92% 0.00in /  0mm
00:10 34.7 °F /  1.5 °C 32.6 °F /  0.3 °C 29.86in /  1011.1hPa SSW 6.0mph /  9.7km/h 20.0mph /  32.2km/h 92% 0.00in /  0mm
00:15 34.7 °F /  1.5 °C 32.6 °F /  0.3 °C 29.85in /  1010.7hPa SSW 7.0mph /  11.3km/h 20.0mph /  32.2km/h 92% 0.00in /  0mm
00:20 34.7 °F /  1.5 °C 32.6 °F /  0.3 °C 29.85in /  1010.7hPa SSW 10.0mph /  16.1km/h 20.0mph /  32.2km/h 92% 0.00in /  0mm
00:25 34.8 °F /  1.6 °C 32.7 °F /  0.4 °C 29.85in /  1010.7hPa SSW 7.0mph /  11.3km/h 20.0mph /  32.2km/h 92% 0.00in /  0mm
00:30 34.8 °F /  1.6 °C 32.7 °F /  0.4 °C 29.84in /  1010.4hPa SSW 6.0mph /  9.7km/h 21.0mph /  33.8km/h 92% 0.00in /  0mm
00:35 34.8 °F /  1.6 °C 32.7 °F /  0.4 °C 29.84in /  1010.4hPa SSW 11.0mph /  17.7km/h 21.0mph /  33.8km/h 92% 0.00in /  0mm
00:45 34.8 °F /  1.6 °C 32.7 °F /  0.4 °C 29.84in /  1010.4hPa SSW 8.0mph /  12.9km/h 18.0mph /  29km/h 92% 0.00in /  0mm
00:50 34.8 °F /  1.6 °C 32.7 °F /  0.4 °C 29.84in /  1010.4hPa SW 8.0mph /  12.9km/h 18.0mph /  29km/h 92% 0.00in /  0mm
00:55 34.8 °F /  1.6 °C 32.7 °F /  0.4 °C 29.84in /  1010.4hPa SSW 7.0mph /  11.3km/h 18.0mph /  29km/h 92% 0.00in /  0mm
01:00 34.8 °F /  1.6 °C 32.7 °F /  0.4 °C 29.83in /  1010hPa SSW 8.0mph /  12.9km/h 16.0mph /  25.7km/h 92% 0.00in /  0mm
01:05 34.8 °F /  1.6 °C 32.7 °F /  0.4 °C 29.83in /  1010hPa SSW 8.0mph /  12.9km/h 19.0mph /  30.6km/h 92% 0.00in /  0mm
01:10 34.9 °F /  1.6 °C 32.8 °F /  0.4 °C 29.83in /  1010hPa SSW 10.0mph /  16.1km/h 19.0mph /  30.6km/h 92% 0.00in /  0mm
01:15 34.9 °F /  1.6 °C 32.8 °F /  0.4 °C 29.83in /  1010hPa SSW 7.0mph /  11.3km/h 18.0mph /  29km/h 92% 0.00in /  0mm
01:20 34.9 °F /  1.6 °C 32.8 °F /  0.4 °C 29.83in /  1010hPa SSW 8.0mph /  12.9km/h 17.0mph /  27.4km/h 92% 0.00in /  0mm
01:25 34.8 °F /  1.6 °C 32.7 °F /  0.4 °C 29.83in /  1010hPa SSW 6.0mph /  9.7km/h 17.0mph /  27.4km/h 92% 0.00in /  0mm
01:30 34.9 °F /  1.6 °C 32.8 °F /  0.4 °C 29.83in /  1010hPa SSW 9.0mph /  14.5km/h 15.0mph /  24.1km/h 92% 0.00in /  0mm
01:35 34.9 °F /  1.6 °C 32.8 °F /  0.4 °C 29.83in /  1010hPa SSW 8.0mph /  12.9km/h 17.0mph /  27.4km/h 92% 0.00in /  0mm
01:40 35.0 °F /  1.7 °C 32.9 °F /  0.5 °C 29.83in /  1010hPa SSW 8.0mph /  12.9km/h 17.0mph /  27.4km/h 92% 0.00in /  0mm
01:45 35.1 °F /  1.7 °C 33.0 °F /  0.6 °C 29.82in /  1009.7hPa SSW 8.0mph /  12.9km/h 18.0mph /  29km/h 92% 0.00in /  0mm
01:50 35.1 °F /  1.7 °C 33.0 °F /  0.6 °C 29.82in /  1009.7hPa SSW 8.0mph /  12.9km/h 19.0mph /  30.6km/h 92% 0.00in /  0mm
01:55 35.2 °F /  1.8 °C 33.1 °F /  0.6 °C 29.82in /  1009.7hPa SW 9.0mph /  14.5km/h 19.0mph /  30.6km/h 92% 0.00in /  0mm
02:00 35.2 °F /  1.8 °C 33.1 °F /  0.6 °C 29.82in /  1009.7hPa SSW 7.0mph /  11.3km/h 18.0mph /  29km/h 92% 0.00in /  0mm
02:05 35.3 °F /  1.8 °C 33.2 °F /  0.7 °C 29.82in /  1009.7hPa SSW 8.0mph /  12.9km/h 18.0mph /  29km/h 92% 0.00in /  0mm
02:10 35.3 °F /  1.8 °C 32.9 °F /  0.5 °C 29.82in /  1009.7hPa SSW 6.0mph /  9.7km/h 18.0mph /  29km/h 91% 0.00in /  0mm
02:15 35.3 °F /  1.8 °C 33.2 °F /  0.7 °C 29.82in /  1009.7hPa SSW 9.0mph /  14.5km/h 17.0mph /  27.4km/h 92% 0.00in /  0mm
02:20 35.3 °F /  1.8 °C 33.2 °F /  0.7 °C 29.82in /  1009.7hPa SSW 9.0mph /  14.5km/h 17.0mph /  27.4km/h 92% 0.00in /  0mm
02:25 35.3 °F /  1.8 °C 32.9 °F /  0.5 °C 29.81in /  1009.4hPa SSW 8.0mph /  12.9km/h 17.0mph /  27.4km/h 91% 0.00in /  0mm
02:35 35.2 °F /  1.8 °C 32.8 °F /  0.4 °C 29.81in /  1009.4hPa SW 6.0mph /  9.7km/h 21.0mph /  33.8km/h 91% 0.00in /  0mm
02:40 35.2 °F /  1.8 °C 32.8 °F /  0.4 °C 29.81in /  1009.4hPa SSW 7.0mph /  11.3km/h 21.0mph /  33.8km/h 91% 0.00in /  0mm
02:50 35.3 °F /  1.8 °C 33.2 °F /  0.7 °C 29.81in /  1009.4hPa SW 11.0mph /  17.7km/h 20.0mph /  32.2km/h 92% 0.00in /  0mm
02:55 35.2 °F /  1.8 °C 33.1 °F /  0.6 °C 29.81in /  1009.4hPa SSW 8.0mph /  12.9km/h 19.0mph /  30.6km/h 92% 0.00in /  0mm
03:00 35.0 °F /  1.7 °C 32.9 °F /  0.5 °C 29.81in /  1009.4hPa SSW 9.0mph /  14.5km/h 17.0mph /  27.4km/h 92% 0.00in /  0mm
03:05 35.0 °F /  1.7 °C 32.9 °F /  0.5 °C 29.81in /  1009.4hPa SSW 7.0mph /  11.3km/h 17.0mph /  27.4km/h 92% 0.00in /  0mm
03:10 35.0 °F /  1.7 °C 32.9 °F /  0.5 °C 29.81in /  1009.4hPa SSW 10.0mph /  16.1km/h 18.0mph /  29km/h 92% 0.00in /  0mm
03:15 34.9 °F /  1.6 °C 32.8 °F /  0.4 °C 29.81in /  1009.4hPa SSW 8.0mph /  12.9km/h 18.0mph /  29km/h 92% 0.00in /  0mm
03:20 35.0 °F /  1.7 °C 32.9 °F /  0.5 °C 29.81in /  1009.4hPa SSW 7.0mph /  11.3km/h 15.0mph /  24.1km/h 92% 0.00in /  0mm
03:25 35.0 °F /  1.7 °C 32.9 °F /  0.5 °C 29.81in /  1009.4hPa SSW 9.0mph /  14.5km/h 15.0mph /  24.1km/h 92% 0.00in /  0mm
03:30 35.0 °F /  1.7 °C 32.9 °F /  0.5 °C 29.81in /  1009.4hPa SSW 8.0mph /  12.9km/h 18.0mph /  29km/h 92% 0.00in /  0mm
03:40 35.1 °F /  1.7 °C 33.0 °F /  0.6 °C 29.81in /  1009.4hPa SSW 8.0mph /  12.9km/h 17.0mph /  27.4km/h 92% 0.00in /  0mm
03:45 35.1 °F /  1.7 °C 33.0 °F /  0.6 °C 29.81in /  1009.4hPa SW 6.0mph /  9.7km/h 19.0mph /  30.6km/h 92% 0.00in /  0mm
03:50 35.1 °F /  1.7 °C 33.0 °F /  0.6 °C 29.82in /  1009.7hPa SSW 8.0mph /  12.9km/h 19.0mph /  30.6km/h 92% 0.00in /  0mm
03:55 35.2 °F /  1.8 °C 33.1 °F /  0.6 °C 29.82in /  1009.7hPa SSW 6.0mph /  9.7km/h 15.0mph /  24.1km/h 92% 0.00in /  0mm
04:00 35.2 °F /  1.8 °C 33.1 °F /  0.6 °C 29.82in /  1009.7hPa SSW 8.0mph /  12.9km/h 15.0mph /  24.1km/h 92% 0.00in /  0mm
04:05 35.2 °F /  1.8 °C 33.1 °F /  0.6 °C 29.82in /  1009.7hPa SW 8.0mph /  12.9km/h 15.0mph /  24.1km/h 92% 0.00in /  0mm
04:15 35.2 °F /  1.8 °C 33.1 °F /  0.6 °C 29.82in /  1009.7hPa SSW 9.0mph /  14.5km/h 16.0mph /  25.7km/h 92% 0.00in /  0mm
04:20 35.2 °F /  1.8 °C 33.1 °F /  0.6 °C 29.82in /  1009.7hPa SSW 8.0mph /  12.9km/h 16.0mph /  25.7km/h 92% 0.00in /  0mm
04:30 35.2 °F /  1.8 °C 33.1 °F /  0.6 °C 29.82in /  1009.7hPa SSW 7.0mph /  11.3km/h 14.0mph /  22.5km/h 92% 0.00in /  0mm
04:35 35.3 °F /  1.8 °C 33.2 °F /  0.7 °C 29.82in /  1009.7hPa SSW 6.0mph /  9.7km/h 17.0mph /  27.4km/h 92% 0.00in /  0mm
04:40 35.2 °F /  1.8 °C 33.1 °F /  0.6 °C 29.82in /  1009.7hPa SSW 6.0mph /  9.7km/h 17.0mph /  27.4km/h 92% 0.00in /  0mm
04:45 35.2 °F /  1.8 °C 33.1 °F /  0.6 °C 29.82in /  1009.7hPa SSW 6.0mph /  9.7km/h 15.0mph /  24.1km/h 92% 0.00in /  0mm
04:50 35.3 °F /  1.8 °C 33.2 °F /  0.7 °C 29.82in /  1009.7hPa SSW 7.0mph /  11.3km/h 15.0mph /  24.1km/h 92% 0.00in /  0mm
04:55 35.3 °F /  1.8 °C 33.2 °F /  0.7 °C 29.82in /  1009.7hPa SSW 4.0mph /  6.4km/h 12.0mph /  19.3km/h 92% 0.00in /  0mm
05:00 35.3 °F /  1.8 °C 33.2 °F /  0.7 °C 29.82in /  1009.7hPa SSW 8.0mph /  12.9km/h 16.0mph /  25.7km/h 92% 0.00in /  0mm
05:05 35.3 °F /  1.8 °C 33.2 °F /  0.7 °C 29.82in /  1009.7hPa SSW 9.0mph /  14.5km/h 16.0mph /  25.7km/h 92% 0.00in /  0mm
05:10 35.3 °F /  1.8 °C 33.2 °F /  0.7 °C 29.82in /  1009.7hPa SW 8.0mph /  12.9km/h 14.0mph /  22.5km/h 92% 0.00in /  0mm
05:15 35.3 °F /  1.8 °C 33.2 °F /  0.7 °C 29.82in /  1009.7hPa SSW 8.0mph /  12.9km/h 14.0mph /  22.5km/h 92% 0.00in /  0mm
05:20 35.3 °F /  1.8 °C 33.2 °F /  0.7 °C 29.82in /  1009.7hPa SSW 9.0mph /  14.5km/h 14.0mph /  22.5km/h 92% 0.00in /  0mm
05:25 35.3 °F /  1.8 °C 33.2 °F /  0.7 °C 29.82in /  1009.7hPa SSW 7.0mph /  11.3km/h 13.0mph /  20.9km/h 92% 0.00in /  0mm
05:30 35.2 °F /  1.8 °C 33.1 °F /  0.6 °C 29.82in /  1009.7hPa SSW 6.0mph /  9.7km/h 15.0mph /  24.1km/h 92% 0.00in /  0mm
05:35 35.2 °F /  1.8 °C 33.1 °F /  0.6 °C 29.82in /  1009.7hPa SSW 3.0mph /  4.8km/h 15.0mph /  24.1km/h 92% 0.00in /  0mm
05:40 35.2 °F /  1.8 °C 33.1 °F /  0.6 °C 29.82in /  1009.7hPa SSW 5.0mph /  8km/h 12.0mph /  19.3km/h 92% 0.00in /  0mm
05:50 35.2 °F /  1.8 °C 33.1 °F /  0.6 °C 29.83in /  1010hPa West 4.0mph /  6.4km/h 9.0mph /  14.5km/h 92% 0.00in /  0mm
05:55 35.2 °F /  1.8 °C 33.1 °F /  0.6 °C 29.83in /  1010hPa WSW 2.0mph /  3.2km/h 8.0mph /  12.9km/h 92% 0.00in /  0mm
06:00 35.2 °F /  1.8 °C 33.1 °F /  0.6 °C 29.84in /  1010.4hPa SW 2.0mph /  3.2km/h 7.0mph /  11.3km/h 92% 0.00in /  0mm
06:05 35.2 °F /  1.8 °C 33.1 °F /  0.6 °C 29.84in /  1010.4hPa WSW 2.0mph /  3.2km/h 7.0mph /  11.3km/h 92% 0.00in /  0mm
06:10 35.2 °F /  1.8 °C 33.1 °F /  0.6 °C 29.84in /  1010.4hPa SW 4.0mph /  6.4km/h 8.0mph /  12.9km/h 92% 0.00in /  0mm
06:20 35.2 °F /  1.8 °C 33.1 °F /  0.6 °C 29.83in /  1010hPa SSW 6.0mph /  9.7km/h 15.0mph /  24.1km/h 92% 0.00in /  0mm
06:25 35.3 °F /  1.8 °C 33.2 °F /  0.7 °C 29.84in /  1010.4hPa SSW 6.0mph /  9.7km/h 15.0mph /  24.1km/h 92% 0.00in /  0mm
06:35 35.2 °F /  1.8 °C 33.1 °F /  0.6 °C 29.84in /  1010.4hPa SW 6.0mph /  9.7km/h 11.0mph /  17.7km/h 92% 0.00in /  0mm
06:40 35.2 °F /  1.8 °C 33.1 °F /  0.6 °C 29.84in /  1010.4hPa SW 6.0mph /  9.7km/h 11.0mph /  17.7km/h 92% 0.00in /  0mm
06:45 35.2 °F /  1.8 °C 33.1 °F /  0.6 °C 29.84in /  1010.4hPa SSW 6.0mph /  9.7km/h 11.0mph /  17.7km/h 92% 0.00in /  0mm
06:50 35.1 °F /  1.7 °C 33.0 °F /  0.6 °C 29.85in /  1010.7hPa SW 5.0mph /  8km/h 10.0mph /  16.1km/h 92% 0.00in /  0mm
06:55 35.1 °F /  1.7 °C 33.0 °F /  0.6 °C 29.85in /  1010.7hPa SW 6.0mph /  9.7km/h 10.0mph /  16.1km/h 92% 0.00in /  0mm
07:00 35.1 °F /  1.7 °C 33.0 °F /  0.6 °C 29.85in /  1010.7hPa SSW 5.0mph /  8km/h 14.0mph /  22.5km/h 92% 0.00in /  0mm
07:05 35.1 °F /  1.7 °C 33.0 °F /  0.6 °C 29.85in /  1010.7hPa SW 6.0mph /  9.7km/h 14.0mph /  22.5km/h 92% 0.00in /  0mm
07:10 35.1 °F /  1.7 °C 33.0 °F /  0.6 °C 29.85in /  1010.7hPa WSW 4.0mph /  6.4km/h 13.0mph /  20.9km/h 92% 0.00in /  0mm
07:15 35.1 °F /  1.7 °C 33.0 °F /  0.6 °C 29.85in /  1010.7hPa SW 6.0mph /  9.7km/h 9.0mph /  14.5km/h 92% 0.00in /  0mm
07:20 35.0 °F /  1.7 °C 32.9 °F /  0.5 °C 29.85in /  1010.7hPa SW 5.0mph /  8km/h 9.0mph /  14.5km/h 92% 0.00in /  0mm
07:25 35.0 °F /  1.7 °C 32.9 °F /  0.5 °C 29.85in /  1010.7hPa SSW 3.0mph /  4.8km/h 8.0mph /  12.9km/h 92% 0.00in /  0mm
07:30 35.0 °F /  1.7 °C 32.9 °F /  0.5 °C 29.85in /  1010.7hPa SSW 2.0mph /  3.2km/h 7.0mph /  11.3km/h 92% 0.00in /  0mm
07:35 35.1 °F /  1.7 °C 33.0 °F /  0.6 °C 29.86in /  1011.1hPa SSW 3.0mph /  4.8km/h 9.0mph /  14.5km/h 92% 0.00in /  0mm
07:40 35.1 °F /  1.7 °C 33.0 °F /  0.6 °C 29.86in /  1011.1hPa SW 3.0mph /  4.8km/h 9.0mph /  14.5km/h 92% 0.00in /  0mm
07:50 35.0 °F /  1.7 °C 32.9 °F /  0.5 °C 29.86in /  1011.1hPa SSW 2.0mph /  3.2km/h 6.0mph /  9.7km/h 92% 0.00in /  0mm
07:55 34.9 °F /  1.6 °C 32.8 °F /  0.4 °C 29.87in /  1011.4hPa WSW 7.0mph /  11.3km/h 16.0mph /  25.7km/h 92% 0.00in /  0mm
08:00 35.0 °F /  1.7 °C 32.9 °F /  0.5 °C 29.87in /  1011.4hPa SW 3.0mph /  4.8km/h 16.0mph /  25.7km/h 92% 0.00in /  0mm
08:05 35.1 °F /  1.7 °C 33.0 °F /  0.6 °C 29.88in /  1011.7hPa WSW 4.0mph /  6.4km/h 8.0mph /  12.9km/h 92% 0.00in /  0mm
08:10 35.4 °F /  1.9 °C 32.8 °F /  0.4 °C 29.88in /  1011.7hPa WSW 3.0mph /  4.8km/h 8.0mph /  12.9km/h 90% 0.00in /  0mm
08:15 35.8 °F /  2.1 °C 32.6 °F /  0.3 °C 29.87in /  1011.4hPa WSW 3.0mph /  4.8km/h 8.0mph /  12.9km/h 88% 0.00in /  0mm
08:20 36.1 °F /  2.3 °C 32.3 °F /  0.2 °C 29.88in /  1011.7hPa WSW 5.0mph /  8km/h 9.0mph /  14.5km/h 86% 0.00in /  0mm
08:25 36.2 °F /  2.3 °C 31.8 °F /  -0.1 °C 29.88in /  1011.7hPa West 6.0mph /  9.7km/h 11.0mph /  17.7km/h 84% 0.00in /  0mm
08:35 36.3 °F /  2.4 °C 31.9 °F /  -0.1 °C 29.88in /  1011.7hPa SW 5.0mph /  8km/h 10.0mph /  16.1km/h 84% 0.00in /  0mm
08:40 36.3 °F /  2.4 °C 31.6 °F /  -0.2 °C 29.88in /  1011.7hPa WSW 3.0mph /  4.8km/h 10.0mph /  16.1km/h 83% 0.00in /  0mm
08:45 36.1 °F /  2.3 °C 31.1 °F /  -0.5 °C 29.88in /  1011.7hPa WSW 8.0mph /  12.9km/h 16.0mph /  25.7km/h 82% 0.00in /  0mm
08:50 36.2 °F /  2.3 °C 30.0 °F /  -1.1 °C 29.88in /  1011.7hPa WSW 9.0mph /  14.5km/h 16.0mph /  25.7km/h 78% 0.00in /  0mm
08:55 36.4 °F /  2.4 °C 29.2 °F /  -1.6 °C 29.88in /  1011.7hPa West 7.0mph /  11.3km/h 16.0mph /  25.7km/h 75% 0.00in /  0mm
09:00 36.4 °F /  2.4 °C 27.9 °F /  -2.3 °C 29.88in /  1011.7hPa West 8.0mph /  12.9km/h 16.0mph /  25.7km/h 71% 0.00in /  0mm
09:05 36.4 °F /  2.4 °C 28.2 °F /  -2.1 °C 29.88in /  1011.7hPa West 10.0mph /  16.1km/h 18.0mph /  29km/h 72% 0.00in /  0mm
09:10 36.5 °F /  2.5 °C 28.7 °F /  -1.8 °C 29.88in /  1011.7hPa WSW 6.0mph /  9.7km/h 18.0mph /  29km/h 73% 0.00in /  0mm
09:15 36.4 °F /  2.4 °C 28.6 °F /  -1.9 °C 29.88in /  1011.7hPa West 6.0mph /  9.7km/h 15.0mph /  24.1km/h 73% 0.00in /  0mm
09:20 37.2 °F /  2.9 °C 29.7 °F /  -1.3 °C 29.88in /  1011.7hPa WSW 7.0mph /  11.3km/h 17.0mph /  27.4km/h 74% 0.00in /  0mm
09:25 38.1 °F /  3.4 °C 29.9 °F /  -1.2 °C 29.87in /  1011.4hPa WSW 6.0mph /  9.7km/h 17.0mph /  27.4km/h 72% 0.00in /  0mm
09:35 38.2 °F /  3.4 °C 24.7 °F /  -4.1 °C 29.88in /  1011.7hPa WSW 12.0mph /  19.3km/h 23.0mph /  37km/h 58% 0.00in /  0mm
09:40 38.2 °F /  3.4 °C 24.7 °F /  -4.1 °C 29.88in /  1011.7hPa WSW 9.0mph /  14.5km/h 21.0mph /  33.8km/h 58% 0.00in /  0mm
09:45 38.3 °F /  3.5 °C 25.6 °F /  -3.6 °C 29.88in /  1011.7hPa WSW 8.0mph /  12.9km/h 21.0mph /  33.8km/h 60% 0.00in /  0mm
09:50 38.5 °F /  3.6 °C 25.4 °F /  -3.7 °C 29.88in /  1011.7hPa West 9.0mph /  14.5km/h 17.0mph /  27.4km/h 59% 0.00in /  0mm
09:55 38.2 °F /  3.4 °C 24.3 °F /  -4.3 °C 29.89in /  1012.1hPa West 14.0mph /  22.5km/h 23.0mph /  37km/h 57% 0.00in /  0mm
10:00 38.1 °F /  3.4 °C 25.0 °F /  -3.9 °C 29.88in /  1011.7hPa West 9.0mph /  14.5km/h 23.0mph /  37km/h 59% 0.00in /  0mm
10:05 38.4 °F /  3.6 °C 25.3 °F /  -3.7 °C 29.88in /  1011.7hPa West 9.0mph /  14.5km/h 19.0mph /  30.6km/h 59% 0.00in /  0mm
10:10 38.4 °F /  3.6 °C 25.3 °F /  -3.7 °C 29.88in /  1011.7hPa WNW 12.0mph /  19.3km/h 21.0mph /  33.8km/h 59% 0.00in /  0mm
10:15 38.5 °F /  3.6 °C 25.4 °F /  -3.7 °C 29.88in /  1011.7hPa West 10.0mph /  16.1km/h 21.0mph /  33.8km/h 59% 0.00in /  0mm
10:20 38.5 °F /  3.6 °C 25.8 °F /  -3.4 °C 29.88in /  1011.7hPa WSW 8.0mph /  12.9km/h 17.0mph /  27.4km/h 60% 0.00in /  0mm
10:25 38.7 °F /  3.7 °C 26.0 °F /  -3.3 °C 29.87in /  1011.4hPa West 8.0mph /  12.9km/h 18.0mph /  29km/h 60% 0.00in /  0mm
10:35 38.9 °F /  3.8 °C 25.0 °F /  -3.9 °C 29.87in /  1011.4hPa West 11.0mph /  17.7km/h 19.0mph /  30.6km/h 57% 0.00in /  0mm
10:40 38.6 °F /  3.7 °C 24.7 °F /  -4.1 °C 29.87in /  1011.4hPa WNW 10.0mph /  16.1km/h 23.0mph /  37km/h 57% 0.00in /  0mm
10:45 38.7 °F /  3.7 °C 24.8 °F /  -4 °C 29.88in /  1011.7hPa West 4.0mph /  6.4km/h 23.0mph /  37km/h 57% 0.00in /  0mm
10:55 38.0 °F /  3.3 °C 24.1 °F /  -4.4 °C 29.88in /  1011.7hPa WNW 4.0mph /  6.4km/h 14.0mph /  22.5km/h 57% 0.00in /  0mm
11:00 37.8 °F /  3.2 °C 23.9 °F /  -4.5 °C 29.88in /  1011.7hPa West 6.0mph /  9.7km/h 12.0mph /  19.3km/h 57% 0.00in /  0mm
11:05 37.8 °F /  3.2 °C 24.3 °F /  -4.3 °C 29.89in /  1012.1hPa WSW 7.0mph /  11.3km/h 13.0mph /  20.9km/h 58% 0.00in /  0mm
11:10 37.5 °F /  3.1 °C 23.7 °F /  -4.6 °C 29.89in /  1012.1hPa WSW 6.0mph /  9.7km/h 13.0mph /  20.9km/h 57% 0.00in /  0mm
11:15 37.4 °F /  3 °C 24.0 °F /  -4.4 °C 29.89in /  1012.1hPa West 7.0mph /  11.3km/h 17.0mph /  27.4km/h 58% 0.00in /  0mm
11:20 37.4 °F /  3 °C 24.4 °F /  -4.2 °C 29.88in /  1011.7hPa WSW 5.0mph /  8km/h 17.0mph /  27.4km/h 59% 0.00in /  0mm
11:25 37.4 °F /  3 °C 24.0 °F /  -4.4 °C 29.88in /  1011.7hPa WSW 6.0mph /  9.7km/h 11.0mph /  17.7km/h 58% 0.00in /  0mm
11:30 37.5 °F /  3.1 °C 24.1 °F /  -4.4 °C 29.88in /  1011.7hPa WSW 4.0mph /  6.4km/h 11.0mph /  17.7km/h 58% 0.00in /  0mm
11:40 37.7 °F /  3.2 °C 24.3 °F /  -4.3 °C 29.88in /  1011.7hPa WSW 7.0mph /  11.3km/h 14.0mph /  22.5km/h 58% 0.00in /  0mm
11:45 37.7 °F /  3.2 °C 23.8 °F /  -4.6 °C 29.87in /  1011.4hPa WSW 8.0mph /  12.9km/h 18.0mph /  29km/h 57% 0.00in /  0mm
11:50 37.7 °F /  3.2 °C 23.8 °F /  -4.6 °C 29.87in /  1011.4hPa WSW 7.0mph /  11.3km/h 18.0mph /  29km/h 57% 0.00in /  0mm
11:55 37.8 °F /  3.2 °C 23.9 °F /  -4.5 °C 29.87in /  1011.4hPa West 7.0mph /  11.3km/h 12.0mph /  19.3km/h 57% 0.00in /  0mm
12:00 37.7 °F /  3.2 °C 23.4 °F /  -4.8 °C 29.86in /  1011.1hPa WSW 10.0mph /  16.1km/h 15.0mph /  24.1km/h 56% 0.00in /  0mm
12:05 37.5 °F /  3.1 °C 23.7 °F /  -4.6 °C 29.86in /  1011.1hPa WSW 6.0mph /  9.7km/h 15.0mph /  24.1km/h 57% 0.00in /  0mm
12:10 37.4 °F /  3 °C 24.0 °F /  -4.4 °C 29.86in /  1011.1hPa West 7.0mph /  11.3km/h 15.0mph /  24.1km/h 58% 0.00in /  0mm
12:15 37.3 °F /  2.9 °C 23.9 °F /  -4.5 °C 29.86in /  1011.1hPa WSW 9.0mph /  14.5km/h 15.0mph /  24.1km/h 58% 0.00in /  0mm
12:20 37.3 °F /  2.9 °C 23.9 °F /  -4.5 °C 29.86in /  1011.1hPa West 10.0mph /  16.1km/h 17.0mph /  27.4km/h 58% 0.00in /  0mm
12:25 37.3 °F /  2.9 °C 24.3 °F /  -4.3 °C 29.86in /  1011.1hPa West 7.0mph /  11.3km/h 17.0mph /  27.4km/h 59% 0.00in /  0mm
12:35 38.0 °F /  3.3 °C 24.5 °F /  -4.2 °C 29.85in /  1010.7hPa WSW 5.0mph /  8km/h 11.0mph /  17.7km/h 58% 0.00in /  0mm
12:45 37.7 °F /  3.2 °C 23.8 °F /  -4.6 °C 29.85in /  1010.7hPa West 5.0mph /  8km/h 14.0mph /  22.5km/h 57% 0.00in /  0mm
12:50 37.5 °F /  3.1 °C 23.7 °F /  -4.6 °C 29.85in /  1010.7hPa SW 6.0mph /  9.7km/h 14.0mph /  22.5km/h 57% 0.00in /  0mm
12:55 37.4 °F /  3 °C 24.4 °F /  -4.2 °C 29.85in /  1010.7hPa SW 4.0mph /  6.4km/h 14.0mph /  22.5km/h 59% 0.00in /  0mm
13:00 37.3 °F /  2.9 °C 24.7 °F /  -4.1 °C 29.84in /  1010.4hPa West 3.0mph /  4.8km/h 12.0mph /  19.3km/h 60% 0.00in /  0mm
13:05 37.3 °F /  2.9 °C 23.9 °F /  -4.5 °C 29.84in /  1010.4hPa West 4.0mph /  6.4km/h 12.0mph /  19.3km/h 58% 0.00in /  0mm
13:10 37.4 °F /  3 °C 24.0 °F /  -4.4 °C 29.84in /  1010.4hPa SW 4.0mph /  6.4km/h 9.0mph /  14.5km/h 58% 0.00in /  0mm
13:15 37.6 °F /  3.1 °C 24.6 °F /  -4.1 °C 29.83in /  1010hPa WSW 3.0mph /  4.8km/h 7.0mph /  11.3km/h 59% 0.00in /  0mm
13:20 37.5 °F /  3.1 °C 24.1 °F /  -4.4 °C 29.83in /  1010hPa West 5.0mph /  8km/h 8.0mph /  12.9km/h 58% 0.00in /  0mm
13:25 37.5 °F /  3.1 °C 24.1 °F /  -4.4 °C 29.83in /  1010hPa West 5.0mph /  8km/h 8.0mph /  12.9km/h 58% 0.00in /  0mm
13:30 37.6 °F /  3.1 °C 24.2 °F /  -4.3 °C 29.83in /  1010hPa West 5.0mph /  8km/h 10.0mph /  16.1km/h 58% 0.00in /  0mm
13:35 37.8 °F /  3.2 °C 24.8 °F /  -4 °C 29.83in /  1010hPa West 6.0mph /  9.7km/h 10.0mph /  16.1km/h 59% 0.00in /  0mm
13:40 37.7 °F /  3.2 °C 23.8 °F /  -4.6 °C 29.83in /  1010hPa WSW 7.0mph /  11.3km/h 15.0mph /  24.1km/h 57% 0.00in /  0mm
13:50 37.5 °F /  3.1 °C 24.1 °F /  -4.4 °C 29.84in /  1010.4hPa West 5.0mph /  8km/h 11.0mph /  17.7km/h 58% 0.00in /  0mm
14:00 37.4 °F /  3 °C 24.4 °F /  -4.2 °C 29.84in /  1010.4hPa West 2.0mph /  3.2km/h 10.0mph /  16.1km/h 59% 0.00in /  0mm
14:05 37.4 °F /  3 °C 24.0 °F /  -4.4 °C 29.84in /  1010.4hPa WSW 3.0mph /  4.8km/h 10.0mph /  16.1km/h 58% 0.00in /  0mm
14:10 37.5 °F /  3.1 °C 24.1 °F /  -4.4 °C 29.84in /  1010.4hPa WSW 2.0mph /  3.2km/h 8.0mph /  12.9km/h 58% 0.00in /  0mm
14:15 37.6 °F /  3.1 °C 24.2 °F /  -4.3 °C 29.84in /  1010.4hPa SSW 1.0mph /  1.6km/h 8.0mph /  12.9km/h 58% 0.00in /  0mm
14:25 38.2 °F /  3.4 °C 23.9 °F /  -4.5 °C 29.83in /  1010hPa SW 5.0mph /  8km/h 11.0mph /  17.7km/h 56% 0.00in /  0mm
14:30 38.0 °F /  3.3 °C 23.3 °F /  -4.8 °C 29.84in /  1010.4hPa WSW 6.0mph /  9.7km/h 11.0mph /  17.7km/h 55% 0.00in /  0mm
14:40 37.5 °F /  3.1 °C 23.7 °F /  -4.6 °C 29.83in /  1010hPa WSW 7.0mph /  11.3km/h 12.0mph /  19.3km/h 57% 0.00in /  0mm
14:45 37.3 °F /  2.9 °C 23.9 °F /  -4.5 °C 29.84in /  1010.4hPa WNW 6.0mph /  9.7km/h 11.0mph /  17.7km/h 58% 0.00in /  0mm
14:50 37.1 °F /  2.8 °C 23.7 °F /  -4.6 °C 29.84in /  1010.4hPa West 7.0mph /  11.3km/h 13.0mph /  20.9km/h 58% 0.00in /  0mm
15:00 36.9 °F /  2.7 °C 23.5 °F /  -4.7 °C 29.84in /  1010.4hPa WSW 5.0mph /  8km/h 13.0mph /  20.9km/h 58% 0.00in /  0mm
15:05 36.8 °F /  2.7 °C 23.8 °F /  -4.6 °C 29.84in /  1010.4hPa WSW 8.0mph /  12.9km/h 13.0mph /  20.9km/h 59% 0.00in /  0mm
15:10 36.7 °F /  2.6 °C 23.7 °F /  -4.6 °C 29.85in /  1010.7hPa WSW 5.0mph /  8km/h 13.0mph /  20.9km/h 59% 0.00in /  0mm
15:15 36.6 °F /  2.6 °C 23.6 °F /  -4.7 °C 29.85in /  1010.7hPa WSW 5.0mph /  8km/h 13.0mph /  20.9km/h 59% 0.00in /  0mm
15:20 36.5 °F /  2.5 °C 23.9 °F /  -4.5 °C 29.85in /  1010.7hPa WSW 4.0mph /  6.4km/h 10.0mph /  16.1km/h 60% 0.00in /  0mm
15:25 36.5 °F /  2.5 °C 23.5 °F /  -4.7 °C 29.85in /  1010.7hPa WNW 5.0mph /  8km/h 11.0mph /  17.7km/h 59% 0.00in /  0mm
15:30 36.4 °F /  2.4 °C 23.4 °F /  -4.8 °C 29.85in /  1010.7hPa West 5.0mph /  8km/h 11.0mph /  17.7km/h 59% 0.00in /  0mm
15:35 36.4 °F /  2.4 °C 22.6 °F /  -5.2 °C 29.85in /  1010.7hPa West 6.0mph /  9.7km/h 12.0mph /  19.3km/h 57% 0.00in /  0mm
15:40 36.4 °F /  2.4 °C 23.0 °F /  -5 °C 29.85in /  1010.7hPa West 6.0mph /  9.7km/h 12.0mph /  19.3km/h 58% 0.00in /  0mm
15:45 36.5 °F /  2.5 °C 22.3 °F /  -5.4 °C 29.85in /  1010.7hPa WSW 7.0mph /  11.3km/h 10.0mph /  16.1km/h 56% 0.00in /  0mm
15:50 36.5 °F /  2.5 °C 22.3 °F /  -5.4 °C 29.85in /  1010.7hPa WNW 7.0mph /  11.3km/h 13.0mph /  20.9km/h 56% 0.00in /  0mm
15:55 36.5 °F /  2.5 °C 21.9 °F /  -5.6 °C 29.85in /  1010.7hPa West 4.0mph /  6.4km/h 13.0mph /  20.9km/h 55% 0.00in /  0mm
16:00 36.5 °F /  2.5 °C 22.3 °F /  -5.4 °C 29.85in /  1010.7hPa West 6.0mph /  9.7km/h 11.0mph /  17.7km/h 56% 0.00in /  0mm
16:05 36.4 °F /  2.4 °C 22.2 °F /  -5.4 °C 29.85in /  1010.7hPa West 7.0mph /  11.3km/h 11.0mph /  17.7km/h 56% 0.00in /  0mm
16:10 36.4 °F /  2.4 °C 22.2 °F /  -5.4 °C 29.85in /  1010.7hPa NW 5.0mph /  8km/h 13.0mph /  20.9km/h 56% 0.00in /  0mm
16:15 36.2 °F /  2.3 °C 21.6 °F /  -5.8 °C 29.85in /  1010.7hPa WNW 7.0mph /  11.3km/h 13.0mph /  20.9km/h 55% 0.00in /  0mm
16:20 36.1 °F /  2.3 °C 21.9 °F /  -5.6 °C 29.85in /  1010.7hPa West 6.0mph /  9.7km/h 11.0mph /  17.7km/h 56% 0.00in /  0mm
16:30 36.1 °F /  2.3 °C 21.5 °F /  -5.8 °C 29.85in /  1010.7hPa West 4.0mph /  6.4km/h 8.0mph /  12.9km/h 55% 0.00in /  0mm
16:35 36.0 °F /  2.2 °C 21.4 °F /  -5.9 °C 29.85in /  1010.7hPa WNW 4.0mph /  6.4km/h 8.0mph /  12.9km/h 55% 0.00in /  0mm
16:40 35.9 °F /  2.2 °C 21.7 °F /  -5.7 °C 29.85in /  1010.7hPa WNW 4.0mph /  6.4km/h 8.0mph /  12.9km/h 56% 0.00in /  0mm
16:45 35.9 °F /  2.2 °C 21.7 °F /  -5.7 °C 29.85in /  1010.7hPa WNW 3.0mph /  4.8km/h 7.0mph /  11.3km/h 56% 0.00in /  0mm
16:50 35.8 °F /  2.1 °C 21.6 °F /  -5.8 °C 29.85in /  1010.7hPa WNW 3.0mph /  4.8km/h 6.0mph /  9.7km/h 56% 0.00in /  0mm
16:55 35.8 °F /  2.1 °C 22.1 °F /  -5.5 °C 29.85in /  1010.7hPa WNW 3.0mph /  4.8km/h 9.0mph /  14.5km/h 57% 0.00in /  0mm
17:00 35.7 °F /  2.1 °C 22.0 °F /  -5.6 °C 29.85in /  1010.7hPa WNW 2.0mph /  3.2km/h 9.0mph /  14.5km/h 57% 0.00in /  0mm
17:10 35.5 °F /  1.9 °C 21.8 °F /  -5.7 °C 29.85in /  1010.7hPa WNW 2.0mph /  3.2km/h 5.0mph /  8km/h 57% 0.00in /  0mm
17:15 35.5 °F /  1.9 °C 23.4 °F /  -4.8 °C 29.85in /  1010.7hPa WNW 1.0mph /  1.6km/h 6.0mph /  9.7km/h 61% 0.00in /  0mm
17:20 35.4 °F /  1.9 °C 22.1 °F /  -5.5 °C 29.85in /  1010.7hPa WNW 2.0mph /  3.2km/h 6.0mph /  9.7km/h 58% 0.00in /  0mm
17:25 35.3 °F /  1.8 °C 21.6 °F /  -5.8 °C 29.85in /  1010.7hPa West 2.0mph /  3.2km/h 5.0mph /  8km/h 57% 0.00in /  0mm
17:30 35.2 °F /  1.8 °C 22.7 °F /  -5.2 °C 29.85in /  1010.7hPa West 1.0mph /  1.6km/h 5.0mph /  8km/h 60% 0.00in /  0mm
17:35 35.1 °F /  1.7 °C 22.2 °F /  -5.4 °C 29.85in /  1010.7hPa West 1.0mph /  1.6km/h 5.0mph /  8km/h 59% 0.00in /  0mm
17:40 35.1 °F /  1.7 °C 22.6 °F /  -5.2 °C 29.86in /  1011.1hPa West 2.0mph /  3.2km/h 5.0mph /  8km/h 60% 0.00in /  0mm
17:45 35.1 °F /  1.7 °C 22.2 °F /  -5.4 °C 29.86in /  1011.1hPa West 2.0mph /  3.2km/h 3.0mph /  4.8km/h 59% 0.00in /  0mm
17:50 35.1 °F /  1.7 °C 23.0 °F /  -5 °C 29.86in /  1011.1hPa West 2.0mph /  3.2km/h 6.0mph /  9.7km/h 61% 0.00in /  0mm
17:55 34.9 °F /  1.6 °C 24.0 °F /  -4.4 °C 29.87in /  1011.4hPa NW 6.0mph /  9.7km/h 9.0mph /  14.5km/h 64% 0.00in /  0mm
18:15 33.3 °F /  0.7 °C 25.6 °F /  -3.6 °C 29.86in /  1011.1hPa WSW 4.0mph /  6.4km/h 8.0mph /  12.9km/h 73% 0.00in /  0mm
18:25 33.0 °F /  0.6 °C 25.3 °F /  -3.7 °C 29.86in /  1011.1hPa West 3.0mph /  4.8km/h 6.0mph /  9.7km/h 73% 0.00in /  0mm
18:35 33.0 °F /  0.6 °C 25.3 °F /  -3.7 °C 29.86in /  1011.1hPa WSW 5.0mph /  8km/h 8.0mph /  12.9km/h 73% 0.00in /  0mm
18:40 33.1 °F /  0.6 °C 25.1 °F /  -3.8 °C 29.86in /  1011.1hPa WSW 4.0mph /  6.4km/h 8.0mph /  12.9km/h 72% 0.00in /  0mm
18:45 33.2 °F /  0.7 °C 25.2 °F /  -3.8 °C 29.85in /  1010.7hPa WSW 2.0mph /  3.2km/h 7.0mph /  11.3km/h 72% 0.00in /  0mm
18:50 33.4 °F /  0.8 °C 25.0 °F /  -3.9 °C 29.85in /  1010.7hPa SW 4.0mph /  6.4km/h 7.0mph /  11.3km/h 71% 0.00in /  0mm
18:55 33.7 °F /  0.9 °C 25.0 °F /  -3.9 °C 29.85in /  1010.7hPa West 4.0mph /  6.4km/h 10.0mph /  16.1km/h 70% 0.00in /  0mm
19:00 33.8 °F /  1 °C 25.1 °F /  -3.8 °C 29.86in /  1011.1hPa WSW 8.0mph /  12.9km/h 14.0mph /  22.5km/h 70% 0.00in /  0mm
19:05 34.1 °F /  1.2 °C 25.0 °F /  -3.9 °C 29.86in /  1011.1hPa WNW 4.0mph /  6.4km/h 14.0mph /  22.5km/h 69% 0.00in /  0mm
19:10 33.7 °F /  0.9 °C 26.3 °F /  -3.2 °C 29.86in /  1011.1hPa WNW 5.0mph /  8km/h 13.0mph /  20.9km/h 74% 0.00in /  0mm
19:15 32.9 °F /  0.5 °C 25.8 °F /  -3.4 °C 29.86in /  1011.1hPa WNW 7.0mph /  11.3km/h 13.0mph /  20.9km/h 75% 0.00in /  0mm
19:20 32.5 °F /  0.3 °C 25.8 °F /  -3.4 °C 29.86in /  1011.1hPa West 6.0mph /  9.7km/h 12.0mph /  19.3km/h 76% 0.00in /  0mm
19:25 32.1 °F /  0.1 °C 26.0 °F /  -3.3 °C 29.85in /  1010.7hPa WSW 4.0mph /  6.4km/h 12.0mph /  19.3km/h 78% 0.00in /  0mm
19:30 31.8 °F /  -0.1 °C 26.0 °F /  -3.3 °C 29.85in /  1010.7hPa WSW 2.0mph /  3.2km/h 7.0mph /  11.3km/h 79% 0.00in /  0mm
19:40 31.7 °F /  -0.2 °C 25.9 °F /  -3.4 °C 29.85in /  1010.7hPa WSW 3.0mph /  4.8km/h 6.0mph /  9.7km/h 79% 0.00in /  0mm
19:45 31.7 °F /  -0.2 °C 25.6 °F /  -3.6 °C 29.85in /  1010.7hPa WSW 2.0mph /  3.2km/h 6.0mph /  9.7km/h 78% 0.00in /  0mm
19:50 32.0 °F /  0 °C 25.6 °F /  -3.6 °C 29.85in /  1010.7hPa SW 4.0mph /  6.4km/h 8.0mph /  12.9km/h 77% 0.00in /  0mm
19:55 32.3 °F /  0.2 °C 25.3 °F /  -3.7 °C 29.85in /  1010.7hPa SW 4.0mph /  6.4km/h 10.0mph /  16.1km/h 75% 0.00in /  0mm
20:00 32.5 °F /  0.3 °C 25.5 °F /  -3.6 °C 29.85in /  1010.7hPa SW 4.0mph /  6.4km/h 10.0mph /  16.1km/h 75% 0.00in /  0mm
20:05 32.5 °F /  0.3 °C 25.1 °F /  -3.8 °C 29.85in /  1010.7hPa SW 4.0mph /  6.4km/h 9.0mph /  14.5km/h 74% 0.00in /  0mm
20:10 32.6 °F /  0.3 °C 25.2 °F /  -3.8 °C 29.85in /  1010.7hPa SW 3.0mph /  4.8km/h 9.0mph /  14.5km/h 74% 0.00in /  0mm
20:15 32.4 °F /  0.2 °C 25.0 °F /  -3.9 °C 29.85in /  1010.7hPa SW 3.0mph /  4.8km/h 6.0mph /  9.7km/h 74% 0.00in /  0mm
20:20 32.6 °F /  0.3 °C 24.9 °F /  -3.9 °C 29.85in /  1010.7hPa SW 4.0mph /  6.4km/h 8.0mph /  12.9km/h 73% 0.00in /  0mm
20:25 32.7 °F /  0.4 °C 25.0 °F /  -3.9 °C 29.85in /  1010.7hPa WSW 4.0mph /  6.4km/h 11.0mph /  17.7km/h 73% 0.00in /  0mm
20:30 32.8 °F /  0.4 °C 24.8 °F /  -4 °C 29.85in /  1010.7hPa West 5.0mph /  8km/h 11.0mph /  17.7km/h 72% 0.00in /  0mm
20:35 32.9 °F /  0.5 °C 24.5 °F /  -4.2 °C 29.85in /  1010.7hPa WSW 5.0mph /  8km/h 11.0mph /  17.7km/h 71% 0.00in /  0mm
20:40 32.9 °F /  0.5 °C 24.5 °F /  -4.2 °C 29.85in /  1010.7hPa WSW 5.0mph /  8km/h 10.0mph /  16.1km/h 71% 0.00in /  0mm
20:45 32.8 °F /  0.4 °C 24.4 °F /  -4.2 °C 29.85in /  1010.7hPa WSW 7.0mph /  11.3km/h 11.0mph /  17.7km/h 71% 0.00in /  0mm
20:50 32.9 °F /  0.5 °C 24.2 °F /  -4.3 °C 29.85in /  1010.7hPa WSW 5.0mph /  8km/h 12.0mph /  19.3km/h 70% 0.00in /  0mm
21:00 32.9 °F /  0.5 °C 24.2 °F /  -4.3 °C 29.86in /  1011.1hPa WSW 5.0mph /  8km/h 10.0mph /  16.1km/h 70% 0.00in /  0mm
21:05 32.8 °F /  0.4 °C 24.1 °F /  -4.4 °C 29.86in /  1011.1hPa WSW 6.0mph /  9.7km/h 10.0mph /  16.1km/h 70% 0.00in /  0mm
21:10 32.8 °F /  0.4 °C 24.1 °F /  -4.4 °C 29.86in /  1011.1hPa WSW 4.0mph /  6.4km/h 10.0mph /  16.1km/h 70% 0.00in /  0mm
21:15 32.8 °F /  0.4 °C 24.1 °F /  -4.4 °C 29.86in /  1011.1hPa WSW 5.0mph /  8km/h 10.0mph /  16.1km/h 70% 0.00in /  0mm
21:20 32.7 °F /  0.4 °C 24.0 °F /  -4.4 °C 29.86in /  1011.1hPa West 5.0mph /  8km/h 10.0mph /  16.1km/h 70% 0.00in /  0mm
21:25 32.7 °F /  0.4 °C 24.3 °F /  -4.3 °C 29.86in /  1011.1hPa West 4.0mph /  6.4km/h 9.0mph /  14.5km/h 71% 0.00in /  0mm
21:35 32.8 °F /  0.4 °C 24.1 °F /  -4.4 °C 29.86in /  1011.1hPa WSW 5.0mph /  8km/h 11.0mph /  17.7km/h 70% 0.00in /  0mm
21:40 32.8 °F /  0.4 °C 24.1 °F /  -4.4 °C 29.86in /  1011.1hPa WSW 6.0mph /  9.7km/h 11.0mph /  17.7km/h 70% 0.00in /  0mm
21:45 32.8 °F /  0.4 °C 24.1 °F /  -4.4 °C 29.86in /  1011.1hPa West 4.0mph /  6.4km/h 11.0mph /  17.7km/h 70% 0.00in /  0mm
21:50 32.8 °F /  0.4 °C 24.1 °F /  -4.4 °C 29.86in /  1011.1hPa West 5.0mph /  8km/h 11.0mph /  17.7km/h 70% 0.00in /  0mm
21:55 32.9 °F /  0.5 °C 24.2 °F /  -4.3 °C 29.86in /  1011.1hPa West 6.0mph /  9.7km/h 14.0mph /  22.5km/h 70% 0.00in /  0mm
22:00 33.0 °F /  0.6 °C 24.3 °F /  -4.3 °C 29.85in /  1010.7hPa West 5.0mph /  8km/h 14.0mph /  22.5km/h 70% 0.00in /  0mm
22:05 32.9 °F /  0.5 °C 24.2 °F /  -4.3 °C 29.85in /  1010.7hPa WSW 4.0mph /  6.4km/h 12.0mph /  19.3km/h 70% 0.00in /  0mm
22:10 32.8 °F /  0.4 °C 24.1 °F /  -4.4 °C 29.85in /  1010.7hPa WSW 4.0mph /  6.4km/h 8.0mph /  12.9km/h 70% 0.00in /  0mm
22:15 32.6 °F /  0.3 °C 24.2 °F /  -4.3 °C 29.85in /  1010.7hPa WSW 5.0mph /  8km/h 8.0mph /  12.9km/h 71% 0.00in /  0mm
22:25 32.6 °F /  0.3 °C 23.9 °F /  -4.5 °C 29.85in /  1010.7hPa WSW 4.0mph /  6.4km/h 11.0mph /  17.7km/h 70% 0.00in /  0mm
22:30 32.6 °F /  0.3 °C 23.9 °F /  -4.5 °C 29.85in /  1010.7hPa SW 5.0mph /  8km/h 11.0mph /  17.7km/h 70% 0.00in /  0mm
22:35 32.5 °F /  0.3 °C 24.1 °F /  -4.4 °C 29.85in /  1010.7hPa WSW 3.0mph /  4.8km/h 8.0mph /  12.9km/h 71% 0.00in /  0mm
22:40 32.5 °F /  0.3 °C 24.1 °F /  -4.4 °C 29.85in /  1010.7hPa SW 5.0mph /  8km/h 8.0mph /  12.9km/h 71% 0.00in /  0mm
22:50 32.7 °F /  0.4 °C 24.0 °F /  -4.4 °C 29.85in /  1010.7hPa WSW 6.0mph /  9.7km/h 11.0mph /  17.7km/h 70% 0.00in /  0mm
22:55 32.8 °F /  0.4 °C 24.1 °F /  -4.4 °C 29.85in /  1010.7hPa WSW 6.0mph /  9.7km/h 11.0mph /  17.7km/h 70% 0.00in /  0mm
23:00 32.8 °F /  0.4 °C 24.1 °F /  -4.4 °C 29.85in /  1010.7hPa WSW 4.0mph /  6.4km/h 9.0mph /  14.5km/h 70% 0.00in /  0mm
23:05 32.8 °F /  0.4 °C 24.1 °F /  -4.4 °C 29.85in /  1010.7hPa WSW 4.0mph /  6.4km/h 8.0mph /  12.9km/h 70% 0.00in /  0mm
23:10 32.8 °F /  0.4 °C 24.1 °F /  -4.4 °C 29.85in /  1010.7hPa West 4.0mph /  6.4km/h 8.0mph /  12.9km/h 70% 0.00in /  0mm
23:15 32.7 °F /  0.4 °C 24.0 °F /  -4.4 °C 29.85in /  1010.7hPa WSW 5.0mph /  8km/h 8.0mph /  12.9km/h 70% 0.00in /  0mm
23:20 32.7 °F /  0.4 °C 24.0 °F /  -4.4 °C 29.85in /  1010.7hPa West 7.0mph /  11.3km/h 12.0mph /  19.3km/h 70% 0.00in /  0mm
23:25 32.7 °F /  0.4 °C 24.0 °F /  -4.4 °C 29.85in /  1010.7hPa WSW 4.0mph /  6.4km/h 12.0mph /  19.3km/h 70% 0.00in /  0mm
23:30 32.6 °F /  0.3 °C 23.9 °F /  -4.5 °C 29.85in /  1010.7hPa West 5.0mph /  8km/h 9.0mph /  14.5km/h 70% 0.00in /  0mm
23:35 32.5 °F /  0.3 °C 23.8 °F /  -4.6 °C 29.85in /  1010.7hPa West 2.0mph /  3.2km/h 9.0mph /  14.5km/h 70% 0.00in /  0mm
23:45 32.3 °F /  0.2 °C 24.0 °F /  -4.4 °C 29.85in /  1010.7hPa West 4.0mph /  6.4km/h 8.0mph /  12.9km/h 71% 0.00in /  0mm
23:55 32.3 °F /  0.2 °C 23.6 °F /  -4.7 °C 29.85in /  1010.7hPa WSW 4.0mph /  6.4km/h 8.0mph /  12.9km/h 70% 0.00in /  0mm
Westford Weather
Compliments of Weather Underground

 
 
Current Radar Loop:

Copyright © WestfordWeather.net 2007-2014. All rights reserved.